Time;durP1;ratioP1;P1;durP2;ratioP2;P2;SDS_P1;SDS_P2;PMS_P1;PMS_P2;Temp;Humidity;BMP_temperature;BMP_pressure;BME280_temperature;BME280_humidity;BME280_pressure;Samples;Min_cycle;Max_cycle;Signal;HPM_P1;HPM_P2
2023/05/04 00:01:03;;;;;;;8.70;5.40;;;16.00;61.40;;;;;;5024540;28;20512;-67
2023/05/04 00:03:29;;;;;;;7.30;4.77;;;16.00;61.60;;;;;;5025625;28;20184;-67
2023/05/04 00:05:54;;;;;;;5.10;4.60;;;15.90;62.10;;;;;;5024166;28;20177;-68
2023/05/04 00:08:20;;;;;;;6.50;5.00;;;15.90;62.20;;;;;;5025209;28;20649;-67
2023/05/04 00:10:46;;;;;;;6.00;4.73;;;15.90;62.50;;;;;;5022941;28;20212;-68
2023/05/04 00:13:12;;;;;;;5.37;4.80;;;15.80;62.30;;;;;;5022114;28;20181;-68
2023/05/04 00:15:37;;;;;;;6.40;4.37;;;15.90;62.70;;;;;;5028738;28;20411;-68
2023/05/04 00:18:03;;;;;;;5.47;4.87;;;15.80;63.30;;;;;;5024945;28;20216;-68
2023/05/04 00:20:28;;;;;;;5.77;5.00;;;15.80;63.30;;;;;;5021524;28;20277;-68
2023/05/04 00:22:54;;;;;;;7.33;4.70;;;15.80;63.40;;;;;;5022088;28;20239;-68
2023/05/04 00:25:20;;;;;;;5.90;5.03;;;15.80;63.70;;;;;;5019545;28;20181;-68
2023/05/04 00:27:45;;;;;;;4.70;4.30;;;15.80;63.80;;;;;;5021920;28;20216;-68
2023/05/04 00:30:11;;;;;;;9.90;5.40;;;15.70;63.80;;;;;;5021150;28;20216;-68
2023/05/04 00:32:36;;;;;;;5.20;4.70;;;15.70;63.90;;;;;;5021869;28;20177;-68
2023/05/04 00:35:02;;;;;;;9.03;5.47;;;15.70;64.20;;;;;;5021435;28;20180;-68
2023/05/04 00:37:28;;;;;;;5.67;4.70;;;15.60;64.30;;;;;;5018323;28;20192;-68
2023/05/04 00:39:53;;;;;;;6.50;4.97;;;15.60;64.90;;;;;;5021546;28;20544;-68
2023/05/04 00:42:19;;;;;;;5.13;4.20;;;15.50;64.90;;;;;;5025117;28;20195;-68
2023/05/04 00:44:44;;;;;;;5.30;4.80;;;15.50;65.10;;;;;;5020705;28;20239;-68
2023/05/04 00:47:11;;;;;;;9.70;4.50;;;15.50;65.10;;;;;;5023873;28;20226;-68
2023/05/04 00:49:37;;;;;;;8.00;4.97;;;15.50;65.30;;;;;;5021092;28;20196;-68
2023/05/04 00:52:04;;;;;;;5.80;4.97;;;15.40;65.30;;;;;;5015737;28;20488;-68
2023/05/04 00:54:30;;;;;;;5.87;4.90;;;15.40;65.40;;;;;;5018354;28;20192;-68
2023/05/04 00:56:56;;;;;;;8.13;4.90;;;15.40;65.50;;;;;;5021865;28;20435;-68
2023/05/04 00:59:21;;;;;;;5.23;4.50;;;15.40;65.60;;;;;;5014448;28;20535;-67
2023/05/04 01:01:47;;;;;;;5.77;4.70;;;15.30;65.90;;;;;;5019932;28;20225;-67
2023/05/04 01:04:13;;;;;;;6.03;4.97;;;15.30;66.00;;;;;;5017657;28;20211;-67
2023/05/04 01:06:59;;;;;;;5.67;4.97;;;15.30;66.10;;;;;;5020336;28;20572;-67
2023/05/04 01:09:37;;;;;;;7.73;4.63;;;15.30;66.10;;;;;;5019721;28;20450;-67
2023/05/04 01:12:11;;;;;;;6.47;5.17;;;15.20;66.20;;;;;;5018640;28;20451;-68
2023/05/04 01:14:38;;;;;;;6.30;5.60;;;15.20;66.30;;;;;;5025015;28;20462;-68
2023/05/04 01:17:06;;;;;;;5.63;5.03;;;15.20;66.50;;;;;;5019158;28;20518;-68
2023/05/04 01:19:32;;;;;;;8.23;5.57;;;15.20;66.90;;;;;;5020526;28;20506;-67
2023/05/04 01:21:58;;;;;;;6.27;5.30;;;15.10;67.10;;;;;;5019143;28;20454;-67
2023/05/04 01:24:25;;;;;;;9.23;5.83;;;15.10;67.20;;;;;;5019749;28;20802;-67
2023/05/04 01:27:15;;;;;;;7.40;5.30;;;15.10;67.40;;;;;;5019306;28;20183;-67
2023/05/04 01:30:01;;;;;;;7.27;5.57;;;15.10;67.70;;;;;;5017158;28;20456;-68
2023/05/04 01:32:31;;;;;;;5.70;5.10;;;15.00;67.80;;;;;;5022050;28;20475;-67
2023/05/04 01:34:57;;;;;;;6.00;5.40;;;15.00;68.10;;;;;;5019710;28;20455;-67
2023/05/04 01:37:24;;;;;;;6.93;6.20;;;15.00;68.20;;;;;;5023857;28;20443;-68
2023/05/04 01:39:50;;;;;;;6.20;5.17;;;15.00;68.30;;;;;;5021367;28;20897;-67
2023/05/04 01:42:15;;;;;;;7.53;6.43;;;15.00;68.60;;;;;;5024223;28;20472;-68
2023/05/04 01:44:41;;;;;;;7.23;5.50;;;14.90;69.00;;;;;;5020192;28;20655;-68
2023/05/04 01:47:06;;;;;;;7.67;5.00;;;14.90;69.20;;;;;;5024593;28;20199;-67
2023/05/04 01:49:32;;;;;;;10.33;5.17;;;14.90;69.30;;;;;;5022936;28;20269;-68
2023/05/04 01:51:57;;;;;;;6.43;5.67;;;14.80;69.30;;;;;;5021911;28;20180;-67
2023/05/04 01:54:23;;;;;;;6.67;5.90;;;14.80;69.60;;;;;;5024299;28;20181;-67
2023/05/04 01:56:49;;;;;;;8.50;5.10;;;14.80;69.80;;;;;;5023741;28;20199;-67
2023/05/04 01:59:15;;;;;;;6.27;5.67;;;14.80;70.00;;;;;;5018301;28;20577;-67
2023/05/04 02:01:40;;;;;;;6.87;5.80;;;14.80;70.40;;;;;;5023268;28;20693;-67
2023/05/04 02:04:06;;;;;;;8.70;5.67;;;14.70;70.50;;;;;;5023064;28;20185;-67
2023/05/04 02:06:31;;;;;;;7.43;6.03;;;14.70;71.00;;;;;;5020190;28;20479;-67
2023/05/04 02:08:57;;;;;;;8.63;6.17;;;14.70;71.20;;;;;;5019319;28;20280;-67
2023/05/04 02:11:23;;;;;;;11.23;5.90;;;14.70;71.40;;;;;;5022965;28;20235;-67
2023/05/04 02:13:48;;;;;;;7.67;5.97;;;14.70;71.60;;;;;;5023809;28;20176;-67
2023/05/04 02:16:14;;;;;;;8.10;6.20;;;14.70;72.60;;;;;;5025170;28;20180;-67
2023/05/04 02:18:39;;;;;;;8.63;5.90;;;14.70;72.60;;;;;;5020920;28;20665;-67
2023/05/04 02:21:05;;;;;;;7.20;6.50;;;14.70;72.70;;;;;;5020536;28;20216;-67
2023/05/04 02:23:31;;;;;;;7.57;5.87;;;14.60;72.70;;;;;;5017519;28;20181;-67
2023/05/04 02:25:56;;;;;;;6.90;6.20;;;14.60;73.00;;;;;;5019960;28;20188;-67
2023/05/04 02:28:22;;;;;;;6.70;6.10;;;14.60;73.00;;;;;;5020322;28;20196;-67
2023/05/04 02:30:47;;;;;;;7.47;6.20;;;14.60;73.20;;;;;;5018987;28;20188;-67
2023/05/04 02:33:13;;;;;;;8.93;5.93;;;14.60;73.40;;;;;;5024400;28;20187;-67
2023/05/04 02:35:38;;;;;;;7.27;6.47;;;14.60;73.60;;;;;;5025388;28;20692;-67
2023/05/04 02:38:04;;;;;;;8.20;6.13;;;14.60;73.80;;;;;;5025642;28;20277;-67
2023/05/04 02:40:29;;;;;;;7.40;6.17;;;14.60;74.30;;;;;;5018574;28;20219;-67
2023/05/04 02:42:55;;;;;;;6.47;5.77;;;14.50;74.80;;;;;;5025080;28;20180;-68
2023/05/04 02:45:21;;;;;;;8.33;6.37;;;14.50;74.90;;;;;;5025033;28;20183;-67
2023/05/04 02:47:47;;;;;;;6.90;5.87;;;14.50;74.90;;;;;;5023816;28;20787;-67
2023/05/04 02:50:12;;;;;;;9.80;6.40;;;14.40;75.20;;;;;;5022204;28;20267;-67
2023/05/04 02:52:38;;;;;;;8.53;5.33;;;14.40;75.50;;;;;;5025313;28;20199;-67
2023/05/04 02:55:04;;;;;;;9.13;5.90;;;14.40;75.70;;;;;;5021846;28;20247;-67
2023/05/04 02:57:30;;;;;;;6.60;6.00;;;14.40;75.90;;;;;;5024898;28;20173;-67
2023/05/04 02:59:55;;;;;;;7.53;6.73;;;14.40;76.20;;;;;;5023737;28;20295;-67
2023/05/04 03:02:21;;;;;;;6.80;6.10;;;14.30;76.50;;;;;;5023334;28;20510;-67
2023/05/04 03:04:46;;;;;;;7.90;5.83;;;14.30;76.70;;;;;;5025661;28;20231;-67
2023/05/04 03:07:12;;;;;;;7.03;6.10;;;14.30;76.80;;;;;;5025635;28;20185;-67
2023/05/04 03:09:38;;;;;;;7.50;6.20;;;14.30;77.10;;;;;;5024107;28;20279;-67
2023/05/04 03:12:03;;;;;;;6.60;5.80;;;14.20;77.20;;;;;;5029774;28;20180;-67
2023/05/04 03:14:30;;;;;;;11.00;6.40;;;14.20;77.40;;;;;;5024330;28;20635;-67
2023/05/04 03:16:56;;;;;;;7.60;6.90;;;14.20;77.70;;;;;;5022132;28;20185;-67
2023/05/04 03:19:21;;;;;;;7.70;5.50;;;14.20;77.80;;;;;;5024485;28;20848;-67
2023/05/04 03:21:47;;;;;;;10.90;5.90;;;14.10;77.90;;;;;;5022474;28;20435;-67
2023/05/04 03:24:15;;;;;;;6.47;5.87;;;14.10;78.10;;;;;;5022718;28;20185;-67
2023/05/04 03:26:41;;;;;;;6.80;6.13;;;14.10;78.30;;;;;;5022646;28;20245;-67
2023/05/04 03:29:07;;;;;;;7.43;6.57;;;14.00;78.60;;;;;;5022899;28;20971;-67
2023/05/04 03:31:32;;;;;;;6.83;6.13;;;14.00;78.80;;;;;;5024554;28;20191;-67
2023/05/04 03:33:58;;;;;;;7.63;5.80;;;14.00;78.90;;;;;;5020869;28;20222;-67
2023/05/04 03:36:24;;;;;;;10.27;6.60;;;14.00;79.20;;;;;;5023247;28;20685;-67
2023/05/04 03:38:50;;;;;;;8.80;7.30;;;13.90;79.40;;;;;;4983948;28;1053589;-67
2023/05/04 03:41:15;;;;;;;8.23;6.70;;;13.90;79.70;;;;;;5024855;28;20556;-67
2023/05/04 03:43:41;;;;;;;9.10;6.77;;;13.90;80.00;;;;;;5020696;28;20910;-67
2023/05/04 03:46:06;;;;;;;9.30;6.63;;;13.90;80.30;;;;;;5021073;28;20240;-67
2023/05/04 03:48:32;;;;;;;9.90;6.73;;;13.90;80.50;;;;;;5024967;28;20283;-69
2023/05/04 03:50:58;;;;;;;9.63;6.50;;;13.80;80.80;;;;;;5023420;28;20184;-67
2023/05/04 03:53:24;;;;;;;9.60;6.50;;;13.80;81.00;;;;;;5021431;28;20247;-67
2023/05/04 03:55:50;;;;;;;6.93;6.23;;;13.80;81.30;;;;;;5024005;28;20646;-67
2023/05/04 03:58:15;;;;;;;7.60;6.67;;;13.80;81.50;;;;;;5026215;28;20447;-67
2023/05/04 04:00:41;;;;;;;7.27;6.20;;;13.80;82.20;;;;;;5018516;28;20717;-67
2023/05/04 04:03:07;;;;;;;8.80;6.93;;;13.80;82.40;;;;;;5023185;28;20718;-67
2023/05/04 04:05:32;;;;;;;7.03;6.33;;;13.70;82.90;;;;;;5025364;28;20188;-68
2023/05/04 04:07:58;;;;;;;8.70;6.73;;;13.70;83.30;;;;;;5022999;28;20203;-67
2023/05/04 04:10:23;;;;;;;8.60;7.00;;;13.70;83.60;;;;;;5022901;28;20180;-67
2023/05/04 04:12:49;;;;;;;7.73;6.90;;;13.70;84.00;;;;;;5023977;28;20192;-67
2023/05/04 04:15:15;;;;;;;9.50;7.23;;;13.70;84.60;;;;;;5026848;28;20375;-67
2023/05/04 04:17:40;;;;;;;8.70;7.80;;;13.60;85.30;;;;;;5023596;28;20184;-67
2023/05/04 04:20:07;;;;;;;8.50;7.03;;;13.70;85.50;;;;;;5027108;28;20200;-67
2023/05/04 04:22:34;;;;;;;10.20;8.07;;;13.70;85.70;;;;;;5022900;28;20653;-67
2023/05/04 04:25:00;;;;;;;9.20;7.90;;;13.70;85.80;;;;;;5018863;28;20414;-68
2023/05/04 04:27:25;;;;;;;8.03;7.20;;;13.70;86.10;;;;;;5021879;28;20421;-68
2023/05/04 04:29:51;;;;;;;13.30;7.73;;;13.70;86.30;;;;;;5018231;28;20299;-68
2023/05/04 04:32:16;;;;;;;10.97;7.63;;;13.70;86.80;;;;;;5022343;28;20769;-68
2023/05/04 04:34:42;;;;;;;10.17;8.00;;;13.70;86.90;;;;;;5024423;28;20246;-68
2023/05/04 04:37:08;;;;;;;10.40;8.03;;;13.70;87.10;;;;;;5020670;28;20191;-67
2023/05/04 04:39:33;;;;;;;8.23;7.43;;;13.80;87.50;;;;;;5022726;28;20219;-67
2023/05/04 04:41:59;;;;;;;8.53;7.57;;;13.80;87.60;;;;;;5020519;28;20188;-68
2023/05/04 04:44:24;;;;;;;8.73;7.43;;;13.80;87.90;;;;;;5022702;28;20692;-68
2023/05/04 04:46:50;;;;;;;11.50;8.60;;;13.80;88.10;;;;;;5023168;28;20177;-68
2023/05/04 04:49:16;;;;;;;10.00;8.53;;;13.80;88.20;;;;;;5025219;28;20543;-68
2023/05/04 04:51:42;;;;;;;9.43;8.40;;;13.80;88.50;;;;;;5021443;28;20195;-68
2023/05/04 04:54:08;;;;;;;9.73;7.10;;;13.80;89.00;;;;;;5024677;28;20438;-68
2023/05/04 04:56:34;;;;;;;14.10;8.50;;;13.90;89.20;;;;;;5020699;28;20864;-68
2023/05/04 04:58:59;;;;;;;12.60;8.97;;;13.80;89.50;;;;;;5020026;28;20200;-68
2023/05/04 05:01:26;;;;;;;11.60;8.57;;;13.90;89.70;;;;;;5025594;28;20222;-68
2023/05/04 05:03:51;;;;;;;9.60;8.60;;;13.90;90.00;;;;;;5022365;28;20177;-68
2023/05/04 05:06:17;;;;;;;10.20;7.87;;;13.90;90.00;;;;;;5024935;28;21084;-68
2023/05/04 05:08:43;;;;;;;11.27;9.00;;;13.90;90.30;;;;;;5023066;28;20295;-68
2023/05/04 05:11:09;;;;;;;10.93;8.77;;;13.90;90.40;;;;;;5022998;28;20220;-68
2023/05/04 05:13:35;;;;;;;9.90;8.70;;;13.90;90.50;;;;;;5022541;28;20419;-68
2023/05/04 05:16:00;;;;;;;10.90;8.50;;;14.00;90.60;;;;;;5023771;28;20933;-68
2023/05/04 05:18:28;;;;;;;11.30;8.47;;;14.00;90.70;;;;;;5021453;28;20209;-68
2023/05/04 05:20:54;;;;;;;11.00;8.20;;;14.00;90.70;;;;;;5022916;28;20208;-68
2023/05/04 05:23:19;;;;;;;15.93;8.87;;;14.00;91.00;;;;;;5021591;28;20466;-68
2023/05/04 05:25:45;;;;;;;8.97;8.07;;;14.10;91.10;;;;;;5023453;28;20462;-68
2023/05/04 05:28:12;;;;;;;10.27;8.10;;;14.10;91.10;;;;;;5023914;28;20693;-68
2023/05/04 05:30:38;;;;;;;8.13;7.27;;;14.10;91.20;;;;;;5025074;28;20212;-68
2023/05/04 05:33:04;;;;;;;8.37;7.30;;;14.10;91.30;;;;;;5023638;28;21415;-68
2023/05/04 05:35:30;;;;;;;9.10;8.20;;;14.10;91.30;;;;;;5024336;28;20179;-68
2023/05/04 05:37:55;;;;;;;9.53;8.40;;;14.10;91.30;;;;;;5021405;28;20853;-68
2023/05/04 05:40:21;;;;;;;9.13;7.80;;;14.10;91.40;;;;;;5023940;28;20277;-67
2023/05/04 05:42:47;;;;;;;11.97;8.67;;;14.10;91.50;;;;;;5023611;28;20247;-68
2023/05/04 05:45:13;;;;;;;12.90;8.43;;;14.10;91.60;;;;;;5021392;28;20173;-68
2023/05/04 05:47:38;;;;;;;10.87;8.10;;;14.10;91.70;;;;;;5021172;28;20450;-68
2023/05/04 05:50:06;;;;;;;9.70;8.80;;;14.10;92.30;;;;;;5022924;28;20314;-68
2023/05/04 05:52:31;;;;;;;8.73;7.87;;;14.10;92.00;;;;;;5017681;28;20849;-67
2023/05/04 05:54:57;;;;;;;10.70;8.70;;;14.10;92.10;;;;;;5020820;28;20470;-67
2023/05/04 05:57:22;;;;;;;13.73;8.97;;;14.20;92.30;;;;;;5023385;28;20188;-68
2023/05/04 05:59:48;;;;;;;10.73;9.67;;;14.20;92.40;;;;;;5019007;28;20215;-68
2023/05/04 06:02:14;;;;;;;12.20;8.87;;;14.20;92.50;;;;;;5022389;28;20188;-67
2023/05/04 06:04:45;;;;;;;11.00;8.90;;;14.20;92.60;;;;;;5024109;28;20639;-68
2023/05/04 06:07:12;;;;;;;10.57;9.47;;;14.30;92.80;;;;;;5016059;28;20180;-68
2023/05/04 06:09:38;;;;;;;11.87;9.80;;;14.30;93.00;;;;;;5018800;28;20464;-67
2023/05/04 06:12:05;;;;;;;10.80;8.77;;;14.30;93.10;;;;;;5017186;28;20482;-67
2023/05/04 06:14:32;;;;;;;12.20;9.73;;;14.40;93.20;;;;;;5021575;28;20666;-67
2023/05/04 06:16:57;;;;;;;14.07;10.93;;;14.40;93.30;;;;;;5023047;28;20450;-68
2023/05/04 06:19:23;;;;;;;9.90;8.90;;;14.50;93.40;;;;;;5021564;28;20471;-67
2023/05/04 06:21:49;;;;;;;12.17;9.50;;;14.50;93.50;;;;;;5022598;28;20215;-68
2023/05/04 06:24:15;;;;;;;15.47;11.20;;;14.50;93.50;;;;;;5019126;28;20367;-68
2023/05/04 06:26:40;;;;;;;11.07;8.90;;;14.60;93.60;;;;;;5021180;28;20184;-67
2023/05/04 06:29:06;;;;;;;11.77;9.87;;;14.60;93.70;;;;;;5019758;28;20743;-67
2023/05/04 06:31:31;;;;;;;14.83;9.83;;;14.70;93.80;;;;;;5022373;28;20188;-68
2023/05/04 06:33:57;;;;;;;18.60;9.77;;;14.70;93.80;;;;;;5019251;28;20182;-68
2023/05/04 06:36:24;;;;;;;11.60;10.20;;;14.70;93.90;;;;;;5018870;28;20185;-67
2023/05/04 06:38:50;;;;;;;11.50;10.30;;;14.80;94.00;;;;;;5006264;28;20306;-67
2023/05/04 06:41:16;;;;;;;10.93;9.47;;;14.90;94.20;;;;;;5016176;28;20479;-67
2023/05/04 06:43:42;;;;;;;14.77;10.10;;;14.90;94.20;;;;;;5016366;28;20195;-67
2023/05/04 06:46:08;;;;;;;11.10;9.90;;;15.00;94.30;;;;;;5016805;28;20699;-67
2023/05/04 06:48:33;;;;;;;12.20;9.70;;;15.10;94.30;;;;;;5019001;28;20467;-67
2023/05/04 06:50:59;;;;;;;11.83;9.90;;;15.10;94.40;;;;;;5018988;28;20493;-67
2023/05/04 06:53:24;;;;;;;11.57;9.50;;;15.20;94.50;;;;;;5019341;28;20196;-67
2023/05/04 06:55:50;;;;;;;12.73;9.77;;;15.20;94.40;;;;;;5018106;28;20208;-67
2023/05/04 06:58:20;;;;;;;13.23;10.70;;;15.30;94.50;;;;;;5021359;28;20224;-67
2023/05/04 07:00:46;;;;;;;14.30;9.50;;;15.40;94.50;;;;;;5018934;28;20205;-67
2023/05/04 07:03:12;;;;;;;10.43;9.13;;;15.40;94.50;;;;;;5015219;28;20456;-69
2023/05/04 07:05:38;;;;;;;13.90;10.10;;;15.50;94.50;;;;;;5015941;28;20439;-67
2023/05/04 07:08:03;;;;;;;11.77;10.60;;;15.60;94.50;;;;;;5012360;28;20359;-68
2023/05/04 07:10:29;;;;;;;14.67;10.10;;;15.70;94.60;;;;;;5017739;28;20239;-68
2023/05/04 07:12:55;;;;;;;15.40;11.07;;;15.70;94.50;;;;;;5022991;28;20434;-68
2023/05/04 07:15:21;;;;;;;11.93;9.37;;;15.80;94.50;;;;;;5019322;28;20181;-67
2023/05/04 07:17:47;;;;;;;15.17;10.37;;;15.90;94.90;;;;;;5018042;28;20209;-68
2023/05/04 07:20:14;;;;;;;11.47;10.37;;;15.90;94.60;;;;;;5022328;28;20228;-67
2023/05/04 07:22:39;;;;;;;11.17;9.90;;;16.00;94.60;;;;;;5022934;28;20462;-68
2023/05/04 07:25:05;;;;;;;12.40;10.73;;;16.00;94.60;;;;;;5024539;28;20416;-67
2023/05/04 07:27:31;;;;;;;12.27;10.47;;;16.10;94.60;;;;;;5021268;28;20221;-67
2023/05/04 07:29:56;;;;;;;11.83;9.73;;;16.10;94.60;;;;;;5014455;28;20487;-66
2023/05/04 07:32:22;;;;;;;12.13;9.50;;;16.20;94.60;;;;;;5023354;28;20195;-67
2023/05/04 07:34:48;;;;;;;10.37;9.30;;;16.20;94.50;;;;;;5020206;28;20197;-68
2023/05/04 07:37:14;;;;;;;13.60;9.63;;;16.30;94.80;;;;;;5022633;28;20545;-68
2023/05/04 07:39:40;;;;;;;13.53;9.83;;;16.30;94.70;;;;;;5018970;28;21158;-68
2023/05/04 07:42:07;;;;;;;13.10;9.53;;;16.40;94.70;;;;;;5018456;28;20449;-67
2023/05/04 07:44:32;;;;;;;14.03;9.10;;;16.50;94.70;;;;;;5025281;28;20193;-68
2023/05/04 07:46:58;;;;;;;14.20;10.50;;;16.50;94.60;;;;;;5019087;28;20507;-68
2023/05/04 07:49:24;;;;;;;10.00;9.10;;;16.60;94.60;;;;;;5020746;28;20212;-67
2023/05/04 07:51:50;;;;;;;14.03;9.67;;;16.70;94.60;;;;;;5020051;28;20859;-67
2023/05/04 07:54:16;;;;;;;11.33;8.80;;;16.70;94.50;;;;;;5025927;28;20439;-67
2023/05/04 07:56:42;;;;;;;10.67;9.03;;;16.80;94.50;;;;;;5022286;28;20316;-69
2023/05/04 07:59:07;;;;;;;9.57;8.67;;;16.80;94.40;;;;;;5020141;28;20459;-68
2023/05/04 08:01:33;;;;;;;14.67;10.47;;;16.90;94.30;;;;;;5025138;28;20187;-68
2023/05/04 08:03:59;;;;;;;17.87;9.97;;;16.90;94.10;;;;;;5023831;28;20195;-67
2023/05/04 08:06:24;;;;;;;11.20;10.07;;;17.00;94.20;;;;;;5022647;28;20188;-68
2023/05/04 08:08:50;;;;;;;14.73;9.77;;;17.00;94.20;;;;;;5022013;28;20200;-68
2023/05/04 08:11:16;;;;;;;11.47;9.47;;;17.10;94.40;;;;;;5022491;28;20202;-68
2023/05/04 08:13:44;;;;;;;9.20;8.20;;;17.10;94.30;;;;;;5021059;28;20573;-66
2023/05/04 08:16:10;;;;;;;17.30;14.73;;;17.20;94.30;;;;;;5019006;28;20450;-66
2023/05/04 08:18:36;;;;;;;21.10;16.80;;;17.30;94.50;;;;;;5018116;28;20456;-67
2023/05/04 08:21:01;;;;;;;18.17;15.27;;;17.40;94.50;;;;;;5020480;28;21034;-67
2023/05/04 08:23:27;;;;;;;11.40;10.17;;;17.50;94.30;;;;;;5021511;28;21003;-68
2023/05/04 08:25:53;;;;;;;11.13;10.00;;;17.50;94.00;;;;;;5016764;28;20193;-67
2023/05/04 08:28:18;;;;;;;13.50;11.30;;;17.60;93.80;;;;;;5021452;28;20637;-68
2023/05/04 08:30:44;;;;;;;11.90;9.67;;;17.70;93.80;;;;;;5016133;28;20664;-68
2023/05/04 08:33:09;;;;;;;13.20;9.70;;;17.70;94.20;;;;;;5019147;28;20277;-68
2023/05/04 08:35:36;;;;;;;11.60;8.77;;;17.80;93.70;;;;;;5018171;28;20181;-67
2023/05/04 08:38:02;;;;;;;9.90;8.93;;;17.90;93.60;;;;;;5024266;28;20231;-67
2023/05/04 08:40:28;;;;;;;10.50;9.00;;;17.90;93.50;;;;;;5025078;28;21041;-67
2023/05/04 08:42:54;;;;;;;12.23;8.63;;;18.10;93.70;;;;;;5022599;28;20435;-67
2023/05/04 08:45:21;;;;;;;9.83;8.83;;;18.20;93.10;;;;;;5023907;28;20279;-67
2023/05/04 08:47:47;;;;;;;14.70;13.30;;;18.20;93.00;;;;;;5024822;28;20323;-67
2023/05/04 08:50:12;;;;;;;16.23;11.43;;;18.30;92.90;;;;;;5018925;28;20519;-67
2023/05/04 08:52:43;;;;;;;13.50;10.57;;;18.30;92.90;;;;;;5021672;28;20192;-67
2023/05/04 08:55:11;;;;;;;12.20;10.73;;;18.40;93.00;;;;;;5022002;28;20201;-67
2023/05/04 08:57:37;;;;;;;10.77;9.47;;;18.50;92.80;;;;;;5022888;28;20448;-68
2023/05/04 09:00:04;;;;;;;12.33;8.83;;;18.60;92.60;;;;;;5019069;28;20471;-68
2023/05/04 09:02:32;;;;;;;9.43;8.40;;;18.70;92.50;;;;;;5022633;28;20420;-68
2023/05/04 09:05:00;;;;;;;12.40;10.20;;;18.80;92.30;;;;;;5021116;28;20481;-68
2023/05/04 09:07:26;;;;;;;10.17;8.90;;;18.90;92.30;;;;;;5021844;28;20431;-68
2023/05/04 09:09:51;;;;;;;8.30;7.53;;;18.90;92.00;;;;;;5021616;28;20471;-68
2023/05/04 09:12:17;;;;;;;9.43;7.87;;;19.00;91.80;;;;;;5020172;28;20295;-68
2023/05/04 09:14:45;;;;;;;9.50;8.50;;;19.10;91.60;;;;;;5019523;28;20193;-68
2023/05/04 09:17:16;;;;;;;10.20;8.33;;;19.20;91.50;;;;;;5018804;28;20435;-68
2023/05/04 09:19:43;;;;;;;10.00;8.03;;;19.20;91.40;;;;;;5021886;28;20617;-69
2023/05/04 09:22:19;;;;;;;10.07;8.30;;;19.30;91.40;;;;;;5019342;28;20472;-69
2023/05/04 09:24:45;;;;;;;8.27;7.47;;;19.30;91.40;;;;;;5021579;28;20958;-69
2023/05/04 09:27:12;;;;;;;8.93;7.23;;;19.40;91.30;;;;;;5019508;28;20439;-69
2023/05/04 09:29:39;;;;;;;7.87;7.07;;;19.50;91.30;;;;;;5024389;28;20431;-69
2023/05/04 09:32:11;;;;;;;7.90;7.20;;;19.60;91.70;;;;;;5021237;28;20422;-68
2023/05/04 09:34:45;;;;;;;8.60;7.80;;;19.70;91.10;;;;;;5021977;28;20427;-68
2023/05/04 09:37:10;;;;;;;8.33;7.57;;;19.80;90.50;;;;;;5021615;28;20828;-68
2023/05/04 09:39:36;;;;;;;10.43;8.27;;;19.90;89.90;;;;;;5019367;28;20467;-68
2023/05/04 09:42:02;;;;;;;8.90;8.00;;;20.00;88.90;;;;;;5022533;28;20648;-69
2023/05/04 09:44:28;;;;;;;8.90;8.00;;;20.00;88.50;;;;;;5023379;28;20846;-67
2023/05/04 09:46:57;;;;;;;8.17;7.47;;;20.10;88.70;;;;;;5021284;28;20416;-68
2023/05/04 09:49:33;;;;;;;8.67;7.40;;;20.20;88.50;;;;;;5019880;28;20567;-67
2023/05/04 09:52:01;;;;;;;7.37;6.67;;;20.30;87.50;;;;;;5021293;28;20442;-69
2023/05/04 09:54:28;;;;;;;8.27;7.10;;;20.40;87.50;;;;;;5023291;28;20423;-67
2023/05/04 09:57:03;;;;;;;8.40;7.10;;;20.40;87.60;;;;;;5024104;28;20458;-67
2023/05/04 09:59:32;;;;;;;8.37;7.40;;;20.50;87.30;;;;;;5020642;28;20473;-67
2023/05/04 10:01:58;;;;;;;10.00;6.60;;;20.60;87.20;;;;;;5019328;28;21017;-67
2023/05/04 10:04:24;;;;;;;10.03;7.30;;;20.70;86.80;;;;;;5018846;28;20450;-68
2023/05/04 10:06:52;;;;;;;8.10;7.30;;;20.70;86.00;;;;;;5017459;28;20790;-68
2023/05/04 10:09:19;;;;;;;7.67;6.37;;;20.80;86.10;;;;;;5022489;28;20442;-67
2023/05/04 10:11:44;;;;;;;8.30;6.80;;;20.80;85.40;;;;;;5020662;28;20428;-67
2023/05/04 10:14:12;;;;;;;8.30;7.50;;;20.90;85.50;;;;;;5017243;28;20473;-69
2023/05/04 10:16:50;;;;;;;8.97;8.07;;;21.00;84.80;;;;;;5017508;28;20203;-69
2023/05/04 10:19:30;;;;;;;8.20;7.40;;;21.10;83.80;;;;;;5019546;28;20447;-69
2023/05/04 10:22:26;;;;;;;9.60;8.30;;;21.10;83.50;;;;;;5015227;28;20430;-68
2023/05/04 10:25:19;;;;;;;9.37;7.17;;;21.20;83.80;;;;;;5017475;28;20753;-67
2023/05/04 10:28:03;;;;;;;7.87;7.20;;;21.20;83.70;;;;;;5020791;28;20802;-68
2023/05/04 10:30:29;;;;;;;8.13;7.43;;;21.30;82.30;;;;;;5021847;28;20433;-68
2023/05/04 10:32:56;;;;;;;10.87;7.80;;;21.50;82.10;;;;;;5021680;28;20420;-67
2023/05/04 10:35:23;;;;;;;9.10;7.50;;;21.50;81.60;;;;;;5019834;28;20184;-68
2023/05/04 10:37:53;;;;;;;7.47;6.57;;;21.60;81.60;;;;;;5022736;28;20490;-68
2023/05/04 10:40:39;;;;;;;8.90;6.50;;;21.70;81.30;;;;;;5020847;28;20478;-68
2023/05/04 10:43:10;;;;;;;7.67;6.97;;;21.70;79.60;;;;;;5020279;28;20427;-68
2023/05/04 10:45:38;;;;;;;11.80;7.90;;;21.80;80.00;;;;;;5023049;28;20423;-68
2023/05/04 10:48:05;;;;;;;8.17;6.87;;;21.90;79.40;;;;;;5018374;28;20986;-68
2023/05/04 10:50:48;;;;;;;8.40;7.60;;;22.10;79.30;;;;;;5020541;28;20436;-68
2023/05/04 10:53:14;;;;;;;9.27;7.37;;;22.20;78.70;;;;;;5022500;28;20424;-68
2023/05/04 10:55:42;;;;;;;8.90;8.00;;;22.30;78.20;;;;;;5025182;28;20918;-68
2023/05/04 10:58:10;;;;;;;7.30;6.60;;;22.30;77.00;;;;;;5022330;28;20448;-68
2023/05/04 11:00:40;;;;;;;8.43;6.60;;;22.40;77.00;;;;;;5024458;28;20466;-68
2023/05/04 11:03:06;;;;;;;7.07;6.43;;;22.50;77.20;;;;;;5026737;28;20800;-69
2023/05/04 11:05:46;;;;;;;7.23;6.37;;;22.60;77.00;;;;;;5022902;28;20431;-69
2023/05/04 11:08:25;;;;;;;7.80;7.00;;;22.70;76.60;;;;;;5025806;28;20864;-68
2023/05/04 11:11:20;;;;;;;6.73;6.13;;;22.70;75.50;;;;;;5024878;28;20465;-68
2023/05/04 11:13:46;;;;;;;6.57;6.03;;;22.80;75.00;;;;;;5006844;28;20443;-68
2023/05/04 11:16:25;;;;;;;7.20;6.60;;;22.90;74.80;;;;;;5022124;28;20981;-69
2023/05/04 11:18:52;;;;;;;6.70;6.00;;;23.00;74.00;;;;;;5018655;28;20615;-68
2023/05/04 11:21:24;;;;;;;8.50;5.60;;;23.10;73.20;;;;;;5022727;28;20478;-68
2023/05/04 11:23:55;;;;;;;5.83;5.13;;;23.20;71.40;;;;;;5024428;28;20454;-68
2023/05/04 11:26:20;;;;;;;6.40;5.63;;;23.30;71.20;;;;;;5026348;28;20420;-68
2023/05/04 11:28:46;;;;;;;6.60;5.83;;;23.60;71.00;;;;;;5026022;28;20465;-68
2023/05/04 11:31:16;;;;;;;7.67;6.63;;;23.70;70.10;;;;;;5019419;28;20251;-69
2023/05/04 11:33:49;;;;;;;5.87;5.37;;;23.80;68.90;;;;;;5021383;28;20235;-66
2023/05/04 11:36:16;;;;;;;6.27;5.77;;;24.00;68.60;;;;;;5023125;28;21482;-68
2023/05/04 11:38:42;;;;;;;6.67;6.13;;;24.10;68.30;;;;;;5023991;28;20999;-68
2023/05/04 11:41:08;;;;;;;7.00;6.30;;;24.30;68.50;;;;;;5025339;28;20558;-68
2023/05/04 11:43:36;;;;;;;7.60;5.83;;;24.50;66.30;;;;;;5023550;28;20431;-69
2023/05/04 11:46:02;;;;;;;6.53;5.83;;;24.70;65.20;;;;;;5022407;28;20518;-68
2023/05/04 11:48:28;;;;;;;7.20;6.13;;;24.90;65.60;;;;;;5023210;28;20439;-68
2023/05/04 11:50:55;;;;;;;7.20;6.50;;;25.20;64.60;;;;;;5026003;28;20431;-68
2023/05/04 11:53:22;;;;;;;7.07;6.13;;;25.50;64.40;;;;;;5020588;28;20435;-69
2023/05/04 11:55:47;;;;;;;5.90;5.17;;;26.00;63.60;;;;;;5023363;28;20477;-68
2023/05/04 11:58:13;;;;;;;6.10;5.50;;;26.50;62.60;;;;;;5023831;28;20486;-67
2023/05/04 12:00:44;;;;;;;5.50;5.00;;;27.20;60.00;;;;;;5023295;28;20212;-68
2023/05/04 12:03:12;;;;;;;6.47;5.90;;;28.20;58.80;;;;;;5023737;28;20582;-68
2023/05/04 12:05:45;;;;;;;9.10;5.43;;;29.60;56.10;;;;;;5019690;28;20438;-68
2023/05/04 12:08:25;;;;;;;6.00;5.50;;;30.90;53.30;;;;;;5019055;28;20442;-69
2023/05/04 12:11:09;;;;;;;5.70;5.20;;;32.40;51.80;;;;;;5022858;28;20381;-69
2023/05/04 12:13:35;;;;;;;7.60;5.00;;;33.50;49.60;;;;;;5025199;28;20435;-69
2023/05/04 12:16:07;;;;;;;5.83;5.33;;;34.50;47.20;;;;;;5023550;28;20390;-69
2023/05/04 12:18:33;;;;;;;5.70;5.10;;;35.30;44.90;;;;;;5025868;28;20413;-69
2023/05/04 12:21:10;;;;;;;12.13;4.70;;;35.90;42.80;;;;;;5022423;28;20467;-68
2023/05/04 12:23:37;;;;;;;5.00;4.60;;;36.50;41.10;;;;;;5023838;28;20180;-68
2023/05/04 12:26:03;;;;;;;4.97;4.40;;;36.80;40.00;;;;;;5023620;28;20966;-68
2023/05/04 12:28:29;;;;;;;5.97;4.70;;;37.30;38.90;;;;;;5025164;28;20449;-68
2023/05/04 12:30:55;;;;;;;5.30;4.87;;;37.70;38.20;;;;;;5023311;28;20423;-68
2023/05/04 12:33:21;;;;;;;6.13;5.10;;;38.10;37.20;;;;;;5024619;28;21145;-68
2023/05/04 12:35:47;;;;;;;6.70;4.53;;;38.40;35.90;;;;;;5021457;28;20490;-69
2023/05/04 12:38:12;;;;;;;5.30;4.40;;;38.80;35.10;;;;;;5021507;28;21151;-69
2023/05/04 12:40:38;;;;;;;4.93;4.43;;;39.20;35.10;;;;;;5022609;28;20527;-69
2023/05/04 12:43:04;;;;;;;5.20;4.70;;;39.70;34.30;;;;;;5020675;28;20173;-69